Time;durP1;ratioP1;P1;durP2;ratioP2;P2;SDS_P1;SDS_P2;PMS_P1;PMS_P2;Temp;Humidity;BMP_temperature;BMP_pressure;BME280_temperature;BME280_humidity;BME280_pressure;Samples;Min_cycle;Max_cycle;Signal;HPM_P1;HPM_P2
2021/01/02 00:00:18;;;;;;;9.45;6.63;;;6.50;90.00;;;;;;5052795;28;20064;-78
2021/01/02 00:02:44;;;;;;;11.30;5.78;;;6.50;90.10;;;;;;5051813;28;20021;-76
2021/01/02 00:05:14;;;;;;;9.10;5.65;;;6.50;90.10;;;;;;5051690;28;20486;-78
2021/01/02 00:08:14;;;;;;;9.50;6.07;;;6.60;90.10;;;;;;5052081;28;20490;-77
2021/01/02 00:10:53;;;;;;;10.13;6.20;;;6.60;90.00;;;;;;5051380;28;20091;-78
2021/01/02 00:14:00;;;;;;;9.07;5.55;;;6.60;89.80;;;;;;5053099;28;20489;-77
2021/01/02 00:16:41;;;;;;;10.00;6.13;;;6.60;90.00;;;;;;5043266;28;20029;-78
2021/01/02 00:19:37;;;;;;;10.23;6.18;;;6.60;89.70;;;;;;5051142;28;20036;-78
2021/01/02 00:22:10;;;;;;;9.05;6.00;;;6.60;89.70;;;;;;5053001;28;20021;-76
2021/01/02 00:24:57;;;;;;;10.02;6.93;;;6.60;89.50;;;;;;5052875;28;20047;-77
2021/01/02 00:27:27;;;;;;;10.43;6.60;;;6.60;89.50;;;;;;5052813;28;20121;-76
2021/01/02 00:29:59;;;;;;;9.45;6.63;;;6.60;89.40;;;;;;5051246;28;20443;-77
2021/01/02 00:32:47;;;;;;;12.27;6.78;;;6.60;89.60;;;;;;5052454;28;20067;-78
2021/01/02 00:35:25;;;;;;;10.18;6.03;;;6.60;89.40;;;;;;5038465;28;20025;-78
2021/01/02 00:38:07;;;;;;;8.63;5.47;;;6.60;89.10;;;;;;5054235;28;20112;-77
2021/01/02 00:40:35;;;;;;;8.05;5.43;;;6.60;89.00;;;;;;5055544;28;20033;-77
2021/01/02 00:43:01;;;;;;;8.85;5.80;;;6.60;89.00;;;;;;5056585;28;20074;-77
2021/01/02 00:45:28;;;;;;;8.00;5.45;;;6.60;88.80;;;;;;5055317;28;20116;-77
2021/01/02 00:47:55;;;;;;;8.70;5.65;;;6.60;89.00;;;;;;5056280;28;20037;-77
2021/01/02 00:50:23;;;;;;;9.65;6.10;;;6.60;88.70;;;;;;5055055;28;20063;-78
2021/01/02 00:52:54;;;;;;;9.52;6.05;;;6.60;88.80;;;;;;5055214;28;20115;-77
2021/01/02 00:55:42;;;;;;;10.32;6.15;;;6.70;88.90;;;;;;5054935;28;20021;-77
2021/01/02 00:58:43;;;;;;;8.55;5.35;;;6.70;88.80;;;;;;5054915;28;20048;-77
2021/01/02 01:01:19;;;;;;;10.88;4.60;;;6.70;89.10;;;;;;5057220;28;20083;-77
2021/01/02 01:04:06;;;;;;;7.40;4.40;;;6.80;88.60;;;;;;5042943;28;20051;-76
2021/01/02 01:06:38;;;;;;;6.15;4.30;;;6.70;87.90;;;;;;5054549;28;20383;-76
2021/01/02 01:09:05;;;;;;;7.45;4.35;;;6.70;88.00;;;;;;5054670;28;20025;-76
2021/01/02 01:11:36;;;;;;;5.53;3.72;;;6.70;87.80;;;;;;5054917;28;20032;-76
2021/01/02 01:14:04;;;;;;;5.65;3.88;;;6.70;87.70;;;;;;5056014;28;20056;-76
2021/01/02 01:16:43;;;;;;;6.50;3.80;;;6.70;87.60;;;;;;5055309;28;20057;-77
2021/01/02 01:19:11;;;;;;;6.07;3.72;;;6.70;87.50;;;;;;5054533;28;20035;-77
2021/01/02 01:21:44;;;;;;;5.13;3.50;;;6.60;87.30;;;;;;5054285;28;20118;-76
2021/01/02 01:24:14;;;;;;;8.13;3.97;;;6.70;87.30;;;;;;5054367;28;20036;-76
2021/01/02 01:27:02;;;;;;;5.95;3.70;;;6.70;87.30;;;;;;5054570;28;20056;-76
2021/01/02 01:29:37;;;;;;;5.80;3.58;;;6.70;87.40;;;;;;5054247;28;20119;-76
2021/01/02 01:32:06;;;;;;;5.85;3.55;;;6.70;87.00;;;;;;5053946;28;20045;-77
2021/01/02 01:34:34;;;;;;;6.38;3.75;;;6.70;86.90;;;;;;5054258;28;20021;-77
2021/01/02 01:37:06;;;;;;;6.53;4.13;;;6.70;86.90;;;;;;5054172;28;20083;-77
2021/01/02 01:39:34;;;;;;;6.47;3.50;;;6.80;86.90;;;;;;5055209;28;20017;-78
2021/01/02 01:42:06;;;;;;;5.47;3.42;;;6.80;86.80;;;;;;5055211;28;20052;-77
2021/01/02 01:44:54;;;;;;;5.18;3.58;;;6.80;86.40;;;;;;5053957;28;20017;-77
2021/01/02 01:47:40;;;;;;;5.45;3.33;;;6.80;86.40;;;;;;5055494;28;20486;-77
2021/01/02 01:50:41;;;;;;;5.63;3.72;;;6.80;86.10;;;;;;5053737;28;20057;-77
2021/01/02 01:53:28;;;;;;;6.28;3.58;;;6.70;85.90;;;;;;5051879;28;20029;-78
2021/01/02 01:56:09;;;;;;;5.78;3.78;;;6.70;86.10;;;;;;5055171;28;20025;-77
2021/01/02 01:58:54;;;;;;;4.88;3.20;;;6.70;86.40;;;;;;5054049;28;20071;-77
2021/01/02 02:01:24;;;;;;;5.97;3.55;;;6.80;86.30;;;;;;5053551;28;20112;-77
2021/01/02 02:04:48;;;;;;;6.78;3.92;;;6.80;86.10;;;;;;5054863;28;20070;-76
2021/01/02 02:07:19;;;;;;;5.30;3.78;;;6.80;86.00;;;;;;5053713;28;20028;-77
2021/01/02 02:09:58;;;;;;;7.07;4.40;;;6.80;85.70;;;;;;5055015;28;20429;-78
2021/01/02 02:12:32;;;;;;;6.20;4.00;;;6.80;85.60;;;;;;5055423;28;20374;-77
2021/01/02 02:14:57;;;;;;;6.75;4.00;;;6.70;85.30;;;;;;5053495;28;20083;-77
2021/01/02 02:17:35;;;;;;;6.40;4.25;;;6.70;85.40;;;;;;5054678;28;20029;-77
2021/01/02 02:20:16;;;;;;;6.57;4.25;;;6.70;85.40;;;;;;5053537;28;20116;-77
2021/01/02 02:22:42;;;;;;;6.78;3.88;;;6.70;85.10;;;;;;5054049;28;20029;-77
2021/01/02 02:25:11;;;;;;;6.45;4.15;;;6.70;84.90;;;;;;5054368;28;20052;-77
2021/01/02 02:27:40;;;;;;;7.13;4.10;;;6.70;85.10;;;;;;5053205;28;20471;-77
2021/01/02 02:30:16;;;;;;;7.07;4.25;;;6.70;84.90;;;;;;5054361;28;20036;-77
2021/01/02 02:32:48;;;;;;;6.90;4.22;;;6.70;84.90;;;;;;5041336;28;20040;-77
2021/01/02 02:35:19;;;;;;;6.75;4.43;;;6.60;84.70;;;;;;5053299;28;20025;-77
2021/01/02 02:37:51;;;;;;;8.50;4.00;;;6.60;84.80;;;;;;5040847;28;20378;-77
2021/01/02 02:40:19;;;;;;;6.97;4.35;;;6.60;84.90;;;;;;5054488;28;20496;-77
2021/01/02 02:43:02;;;;;;;7.32;4.40;;;6.70;85.00;;;;;;5052714;28;20032;-78
2021/01/02 02:45:33;;;;;;;8.40;4.43;;;6.70;85.10;;;;;;5054252;28;20025;-78
2021/01/02 02:48:09;;;;;;;7.03;4.53;;;6.70;85.00;;;;;;5040508;28;20025;-77
2021/01/02 02:50:35;;;;;;;8.90;4.47;;;6.70;84.90;;;;;;5053038;28;20037;-77
2021/01/02 02:53:07;;;;;;;8.30;4.88;;;6.80;84.80;;;;;;5052579;28;20033;-77
2021/01/02 02:55:37;;;;;;;8.07;4.97;;;6.80;84.80;;;;;;5054293;28;20896;-77
2021/01/02 02:58:04;;;;;;;6.80;4.22;;;6.80;84.70;;;;;;5052417;28;20368;-77
2021/01/02 03:00:30;;;;;;;7.38;4.18;;;6.80;84.70;;;;;;5051964;28;20028;-77
2021/01/02 03:02:55;;;;;;;7.45;4.32;;;6.80;84.70;;;;;;5052400;28;20017;-77
2021/01/02 03:05:21;;;;;;;8.52;5.18;;;6.90;84.60;;;;;;5053829;28;20025;-77
2021/01/02 03:07:49;;;;;;;8.85;4.65;;;6.80;84.40;;;;;;5052151;28;20252;-77
2021/01/02 03:10:17;;;;;;;7.82;5.07;;;6.90;84.60;;;;;;5052805;28;20471;-77
2021/01/02 03:12:45;;;;;;;7.50;4.68;;;6.90;84.50;;;;;;5053679;28;20021;-76
2021/01/02 03:15:12;;;;;;;7.10;4.60;;;7.00;84.30;;;;;;5053712;28;20025;-76
2021/01/02 03:17:39;;;;;;;8.07;4.57;;;7.00;84.00;;;;;;5053906;28;20033;-76
2021/01/02 03:20:06;;;;;;;7.80;4.80;;;6.90;83.80;;;;;;5051936;28;20081;-76
2021/01/02 03:22:31;;;;;;;7.18;4.40;;;6.90;83.80;;;;;;5052108;28;20049;-76
2021/01/02 03:24:57;;;;;;;8.48;4.20;;;6.90;83.80;;;;;;5053801;28;20068;-77
2021/01/02 03:27:23;;;;;;;6.90;4.13;;;6.80;83.60;;;;;;5053345;28;20104;-77
2021/01/02 03:29:49;;;;;;;7.30;4.25;;;6.80;83.50;;;;;;5053522;28;20071;-77
2021/01/02 03:32:14;;;;;;;6.40;4.22;;;6.70;83.60;;;;;;5053287;28;20045;-76
2021/01/02 03:34:41;;;;;;;7.70;4.22;;;6.70;83.40;;;;;;5053802;28;20032;-75
2021/01/02 03:37:08;;;;;;;6.45;4.38;;;6.70;83.00;;;;;;5051850;28;20055;-75
2021/01/02 03:39:34;;;;;;;7.25;4.18;;;6.60;82.90;;;;;;5052257;28;20052;-76
2021/01/02 03:42:00;;;;;;;7.38;4.15;;;6.50;82.40;;;;;;5053255;28;20041;-76
2021/01/02 03:44:26;;;;;;;7.07;4.50;;;6.40;82.00;;;;;;5053219;28;20017;-77
2021/01/02 03:46:51;;;;;;;6.88;4.32;;;6.30;81.70;;;;;;5051896;28;20494;-77
2021/01/02 03:49:17;;;;;;;8.55;5.05;;;6.20;81.50;;;;;;5051794;28;20040;-77
2021/01/02 03:51:43;;;;;;;8.30;4.82;;;6.00;81.30;;;;;;5053128;28;20472;-76
2021/01/02 03:54:08;;;;;;;9.23;5.18;;;5.90;81.30;;;;;;5052883;28;20105;-86
2021/01/02 03:56:34;;;;;;;8.23;5.13;;;5.80;81.30;;;;;;5053458;28;20037;-77
2021/01/02 03:59:00;;;;;;;11.05;6.38;;;5.70;81.20;;;;;;5053497;28;20079;-77
2021/01/02 04:01:26;;;;;;;10.68;6.38;;;5.70;81.30;;;;;;5052894;28;20028;-76
2021/01/02 04:03:52;;;;;;;11.23;6.45;;;5.60;81.30;;;;;;5051570;28;20021;-76
2021/01/02 04:06:27;;;;;;;10.13;6.10;;;5.50;81.30;;;;;;5052597;28;20024;-76
2021/01/02 04:08:53;;;;;;;10.20;5.55;;;5.50;81.40;;;;;;5051952;28;20068;-76
2021/01/02 04:11:18;;;;;;;9.13;5.10;;;5.50;81.40;;;;;;5052741;28;20455;-76
2021/01/02 04:13:44;;;;;;;9.65;5.75;;;5.40;81.30;;;;;;5055726;28;20017;-76
2021/01/02 04:16:10;;;;;;;9.00;5.15;;;5.40;81.40;;;;;;5057058;28;20021;-77
2021/01/02 04:18:35;;;;;;;7.40;4.80;;;5.40;81.30;;;;;;5057042;28;20100;-76
2021/01/02 04:21:01;;;;;;;9.95;5.82;;;5.40;81.30;;;;;;5057230;28;20499;-77
2021/01/02 04:23:27;;;;;;;11.80;6.18;;;5.30;81.20;;;;;;5055793;28;20032;-76
2021/01/02 04:25:53;;;;;;;12.27;5.57;;;5.30;81.20;;;;;;5056663;28;20066;-75
2021/01/02 04:28:19;;;;;;;9.52;6.10;;;5.20;81.30;;;;;;5056831;28;20029;-76
2021/01/02 04:30:44;;;;;;;11.00;6.85;;;5.10;81.30;;;;;;5055384;28;20029;-76
2021/01/02 04:33:10;;;;;;;9.30;5.82;;;5.20;81.40;;;;;;5056456;28;20128;-76
2021/01/02 04:35:36;;;;;;;9.30;6.00;;;5.10;81.40;;;;;;5055544;28;20025;-77
2021/01/02 04:38:03;;;;;;;10.35;6.20;;;5.10;81.60;;;;;;5055400;28;20021;-77
2021/01/02 04:40:29;;;;;;;9.15;5.93;;;5.10;81.90;;;;;;5055372;28;20037;-77
2021/01/02 04:42:56;;;;;;;12.00;6.68;;;5.10;82.20;;;;;;5055321;28;20104;-77
2021/01/02 04:45:21;;;;;;;12.05;7.10;;;5.10;82.30;;;;;;5056847;28;20108;-77
2021/01/02 04:47:50;;;;;;;18.73;9.82;;;5.10;82.60;;;;;;5056084;28;20143;-77
2021/01/02 04:50:16;;;;;;;20.17;10.73;;;5.20;82.70;;;;;;5057105;28;20052;-76
2021/01/02 04:52:44;;;;;;;24.38;11.77;;;5.30;82.60;;;;;;5056358;28;20021;-76
2021/01/02 04:55:16;;;;;;;20.90;10.82;;;5.20;82.30;;;;;;5056281;28;20056;-76
2021/01/02 04:57:45;;;;;;;16.70;9.07;;;5.20;82.10;;;;;;5055033;28;20104;-75
2021/01/02 05:00:11;;;;;;;17.40;8.27;;;5.10;81.90;;;;;;5055867;28;20032;-76
2021/01/02 05:02:39;;;;;;;13.93;7.82;;;5.10;81.90;;;;;;5054837;28;20379;-77
2021/01/02 05:05:06;;;;;;;12.98;7.40;;;5.00;82.10;;;;;;5056323;28;20021;-77
2021/01/02 05:07:33;;;;;;;13.93;7.30;;;5.00;82.20;;;;;;5055058;28;20029;-76
2021/01/02 05:09:59;;;;;;;14.02;7.75;;;4.90;82.20;;;;;;5054447;28;20031;-76
2021/01/02 05:12:26;;;;;;;16.77;9.00;;;4.80;82.30;;;;;;5054540;28;20115;-77
2021/01/02 05:15:03;;;;;;;14.32;8.63;;;4.80;82.40;;;;;;5056181;28;20057;-77
2021/01/02 05:17:29;;;;;;;14.35;8.55;;;4.70;82.30;;;;;;5042127;28;20029;-77
2021/01/02 05:20:15;;;;;;;18.80;9.45;;;4.70;82.40;;;;;;5055755;28;20033;-76
2021/01/02 05:22:43;;;;;;;13.60;7.50;;;4.60;82.60;;;;;;5043280;28;20025;-78
2021/01/02 05:25:14;;;;;;;11.52;6.80;;;4.60;82.70;;;;;;5055657;28;20037;-77
2021/01/02 05:27:48;;;;;;;13.40;7.32;;;4.60;82.90;;;;;;5055492;28;20421;-77
2021/01/02 05:30:26;;;;;;;13.48;7.32;;;4.50;83.10;;;;;;5055586;28;20104;-77
2021/01/02 05:33:07;;;;;;;15.00;8.63;;;4.50;83.20;;;;;;5054354;28;20045;-78
2021/01/02 05:35:43;;;;;;;15.18;8.80;;;4.50;83.10;;;;;;5055678;28;20043;-77
2021/01/02 05:38:17;;;;;;;14.57;8.38;;;4.50;83.30;;;;;;5055530;28;20035;-77
2021/01/02 05:41:04;;;;;;;15.00;8.57;;;4.50;83.30;;;;;;5054364;28;20028;-77
2021/01/02 05:43:30;;;;;;;16.10;8.40;;;4.40;83.50;;;;;;5053990;28;20044;-77
2021/01/02 05:45:56;;;;;;;19.13;10.02;;;4.40;83.40;;;;;;5055139;28;20025;-76
2021/01/02 05:48:24;;;;;;;20.45;9.23;;;4.40;83.20;;;;;;5053809;28;20483;-77
2021/01/02 05:51:00;;;;;;;22.85;10.45;;;4.30;83.00;;;;;;5054054;28;20035;-77
2021/01/02 05:53:31;;;;;;;20.00;9.70;;;4.20;83.20;;;;;;5055885;28;20021;-77
2021/01/02 05:56:06;;;;;;;21.63;10.40;;;4.20;83.20;;;;;;5054953;28;20099;-77
2021/01/02 05:58:41;;;;;;;22.70;11.40;;;4.10;83.40;;;;;;5055200;28;20033;-77
2021/01/02 06:01:18;;;;;;;22.70;11.38;;;4.10;83.70;;;;;;5055080;28;20108;-77
2021/01/02 06:03:47;;;;;;;24.13;11.57;;;4.20;84.10;;;;;;5053626;28;20027;-77
2021/01/02 06:06:17;;;;;;;20.10;11.10;;;4.20;84.60;;;;;;5055123;28;20395;-76
2021/01/02 06:08:49;;;;;;;21.42;10.70;;;4.50;86.20;;;;;;5053933;28;20479;-78
2021/01/02 06:11:20;;;;;;;22.55;11.63;;;4.90;87.30;;;;;;5053275;28;20052;-77
2021/01/02 06:13:48;;;;;;;32.00;13.43;;;5.30;87.00;;;;;;5054793;28;20021;-76
2021/01/02 06:16:14;;;;;;;35.38;14.05;;;5.60;86.60;;;;;;5054496;28;20021;-77
2021/01/02 06:18:42;;;;;;;22.67;12.00;;;5.80;86.20;;;;;;5053001;28;20017;-77
2021/01/02 06:21:14;;;;;;;22.58;11.70;;;6.10;85.60;;;;;;5053767;28;20501;-77
2021/01/02 06:23:43;;;;;;;17.98;10.52;;;6.30;85.30;;;;;;5054656;28;20017;-78
2021/01/02 06:26:10;;;;;;;20.75;11.20;;;6.60;85.80;;;;;;5054588;28;20029;-76
2021/01/02 06:28:38;;;;;;;20.27;12.07;;;7.10;86.30;;;;;;5054454;28;20064;-79
2021/01/02 06:31:11;;;;;;;20.85;10.98;;;7.50;85.70;;;;;;5054798;28;20025;-79
2021/01/02 06:33:43;;;;;;;23.48;12.90;;;8.00;84.70;;;;;;5052842;28;20071;-79
2021/01/02 06:36:30;;;;;;;25.58;13.55;;;8.30;83.90;;;;;;5053777;28;20029;-79
2021/01/02 06:39:28;;;;;;;19.92;12.75;;;8.70;83.00;;;;;;5053182;28;20502;-80
2021/01/02 06:41:55;;;;;;;22.38;12.35;;;9.00;81.90;;;;;;5054244;28;20079;-78
2021/01/02 06:44:41;;;;;;;19.45;12.40;;;9.30;82.40;;;;;;5054224;28;20032;-80
2021/01/02 06:47:17;;;;;;;18.65;12.13;;;9.70;80.50;;;;;;5053049;28;20033;-79
2021/01/02 06:49:43;;;;;;;21.15;12.48;;;9.90;78.90;;;;;;5039925;28;20391;-79
2021/01/02 06:52:10;;;;;;;17.38;11.52;;;9.80;77.50;;;;;;5054380;28;20435;-78
2021/01/02 06:54:39;;;;;;;18.40;11.27;;;9.80;76.90;;;;;;5053079;28;20415;-79
2021/01/02 06:57:06;;;;;;;16.10;10.40;;;9.50;75.30;;;;;;5052630;28;20127;-80
2021/01/02 06:59:31;;;;;;;16.70;10.02;;;9.40;74.30;;;;;;5053234;28;20458;-80
2021/01/02 07:01:58;;;;;;;18.10;10.00;;;9.20;74.10;;;;;;5052735;28;20120;-81
2021/01/02 07:04:37;;;;;;;17.00;10.15;;;9.20;75.70;;;;;;5054052;28;20406;-80
2021/01/02 07:07:06;;;;;;;18.48;10.38;;;9.50;76.00;;;;;;5052614;28;20028;-81
2021/01/02 07:09:33;;;;;;;19.45;10.13;;;10.10;77.10;;;;;;5053487;28;20025;-78
2021/01/02 07:12:07;;;;;;;17.63;9.85;;;10.60;76.40;;;;;;5052314;28;20029;-80
2021/01/02 07:14:33;;;;;;;19.13;10.65;;;11.20;75.50;;;;;;5054150;28;20060;-81
2021/01/02 07:17:09;;;;;;;21.30;11.43;;;11.80;74.90;;;;;;5053656;28;20025;-81
2021/01/02 07:19:40;;;;;;;25.45;13.13;;;12.30;73.50;;;;;;5052576;28;20117;-81
2021/01/02 07:22:09;;;;;;;25.05;13.77;;;12.90;72.80;;;;;;5054431;28;20024;-81
2021/01/02 07:24:47;;;;;;;28.60;16.02;;;13.50;71.50;;;;;;5056076;28;20098;-81
2021/01/02 07:27:19;;;;;;;25.13;13.85;;;14.10;68.80;;;;;;5053369;28;20021;-81
2021/01/02 07:29:46;;;;;;;17.35;10.10;;;14.50;67.40;;;;;;5053608;28;20029;-81
2021/01/02 07:32:13;;;;;;;15.93;9.73;;;14.80;66.60;;;;;;5053151;28;20049;-81
2021/01/02 07:35:00;;;;;;;13.80;8.77;;;15.30;65.60;;;;;;5051998;28;20434;-81
2021/01/02 07:37:28;;;;;;;12.55;8.43;;;15.60;63.80;;;;;;5052890;28;20052;-82
2021/01/02 07:39:57;;;;;;;12.10;7.53;;;16.00;62.70;;;;;;5051832;28;20032;-80
2021/01/02 07:42:24;;;;;;;14.88;8.68;;;16.30;61.70;;;;;;5053529;28;20162;-80
2021/01/02 07:44:59;;;;;;;18.10;9.57;;;16.60;60.40;;;;;;5053201;28;20383;-81
2021/01/02 07:47:25;;;;;;;20.48;11.07;;;16.60;58.10;;;;;;5051630;28;20032;-80
2021/01/02 07:49:59;;;;;;;24.20;12.25;;;16.70;57.70;;;;;;5053027;28;20025;-81
2021/01/02 07:52:25;;;;;;;24.85;13.50;;;16.50;55.80;;;;;;5051790;28;20032;-82
2021/01/02 07:54:51;;;;;;;22.77;13.90;;;16.00;55.00;;;;;;5052045;28;20017;-81
2021/01/02 07:57:22;;;;;;;15.57;9.30;;;15.50;55.10;;;;;;5051837;28;20044;-81
2021/01/02 07:59:48;;;;;;;13.38;8.05;;;14.90;54.70;;;;;;5052975;28;20056;-80
2021/01/02 08:02:20;;;;;;;13.27;7.18;;;14.40;55.50;;;;;;5051744;28;20064;-82
2021/01/02 08:04:47;;;;;;;11.43;6.82;;;14.00;55.50;;;;;;5053033;28;20059;-81
2021/01/02 08:07:13;;;;;;;11.18;7.25;;;13.70;56.10;;;;;;5051679;28;20060;-81
2021/01/02 08:09:43;;;;;;;13.48;7.43;;;13.30;56.80;;;;;;5051614;28;20700;-81
2021/01/02 08:12:10;;;;;;;12.70;7.55;;;12.90;57.10;;;;;;5053021;28;20413;-81
2021/01/02 08:14:41;;;;;;;12.48;7.25;;;12.60;57.80;;;;;;5053436;28;20025;-81
2021/01/02 08:17:11;;;;;;;13.65;8.40;;;12.30;58.00;;;;;;5053025;28;20032;-79
2021/01/02 08:19:59;;;;;;;14.10;7.82;;;11.90;58.70;;;;;;5052995;28;20459;-75
2021/01/02 08:22:28;;;;;;;15.95;8.65;;;11.70;59.50;;;;;;5038442;28;20033;-74
2021/01/02 08:24:56;;;;;;;11.45;6.95;;;11.80;60.20;;;;;;5051636;28;20032;-75
2021/01/02 08:27:22;;;;;;;11.30;6.15;;;11.80;59.90;;;;;;5051380;28;20036;-74
2021/01/02 08:29:48;;;;;;;9.93;6.50;;;11.50;59.20;;;;;;5051752;28;20071;-74
2021/01/02 08:32:15;;;;;;;11.02;7.10;;;11.30;59.30;;;;;;5052187;28;20163;-74
2021/01/02 08:34:45;;;;;;;15.95;6.60;;;11.10;60.60;;;;;;5051463;28;20032;-73
2021/01/02 08:37:14;;;;;;;9.60;6.45;;;11.30;61.80;;;;;;5052339;28;20064;-73
2021/01/02 08:39:41;;;;;;;11.40;6.63;;;11.60;61.40;;;;;;5052728;28;20494;-75
2021/01/02 08:42:08;;;;;;;9.82;5.60;;;11.90;61.40;;;;;;5051031;28;20033;-76
2021/01/02 08:44:37;;;;;;;10.32;5.97;;;12.40;61.40;;;;;;5051357;28;20460;-75
2021/01/02 08:47:06;;;;;;;8.05;5.28;;;13.00;60.90;;;;;;5051103;28;20056;-73
2021/01/02 08:49:37;;;;;;;9.95;5.90;;;13.30;59.20;;;;;;5050966;28;20032;-74
2021/01/02 08:52:16;;;;;;;9.95;6.47;;;13.30;57.90;;;;;;5052793;28;20025;-74
2021/01/02 08:54:43;;;;;;;9.85;5.82;;;13.70;59.00;;;;;;5051222;28;20029;-75
2021/01/02 08:57:27;;;;;;;10.45;6.22;;;14.30;58.80;;;;;;5052488;28;20040;-75
2021/01/02 09:00:14;;;;;;;9.70;5.95;;;14.90;57.70;;;;;;5040772;28;20127;-75
2021/01/02 09:03:00;;;;;;;10.30;6.05;;;15.40;56.20;;;;;;5054785;28;20036;-74
2021/01/02 09:05:31;;;;;;;10.60;6.32;;;15.60;54.80;;;;;;5055931;28;20037;-74
2021/01/02 09:08:08;;;;;;;14.38;7.90;;;15.60;54.40;;;;;;5055879;28;20037;-75
2021/01/02 09:10:42;;;;;;;15.63;8.23;;;15.40;54.10;;;;;;5054993;28;20033;-75
2021/01/02 09:13:08;;;;;;;13.90;8.43;;;15.50;54.50;;;;;;5054597;28;20025;-75
2021/01/02 09:15:54;;;;;;;12.85;7.18;;;15.80;54.60;;;;;;5054654;28;20025;-75
2021/01/02 09:18:29;;;;;;;10.50;5.57;;;16.00;54.00;;;;;;5054326;28;20082;-75
2021/01/02 09:20:55;;;;;;;15.40;8.77;;;16.20;53.00;;;;;;5054445;28;20017;-75
2021/01/02 09:23:32;;;;;;;9.65;6.18;;;16.30;52.40;;;;;;5054800;28;20025;-75
2021/01/02 09:25:57;;;;;;;8.93;5.75;;;16.30;52.20;;;;;;5054868;28;20044;-75
2021/01/02 09:28:24;;;;;;;7.60;5.13;;;16.60;51.70;;;;;;5047746;28;20479;-74
2021/01/02 09:30:50;;;;;;;10.73;5.25;;;16.80;50.60;;;;;;5054304;28;20021;-75
2021/01/02 09:33:16;;;;;;;8.63;5.38;;;16.80;50.10;;;;;;5054240;28;20060;-75
2021/01/02 09:35:45;;;;;;;11.23;6.55;;;16.80;50.40;;;;;;5055477;28;20025;-75
2021/01/02 09:38:11;;;;;;;7.30;5.20;;;17.10;50.30;;;;;;5054326;28;20033;-75
2021/01/02 09:40:46;;;;;;;7.47;5.10;;;17.30;49.20;;;;;;5054121;28;20032;-75
2021/01/02 09:43:14;;;;;;;8.13;5.30;;;17.60;49.10;;;;;;5054262;28;20036;-75
2021/01/02 09:45:41;;;;;;;10.38;5.70;;;17.70;48.40;;;;;;5053841;28;20028;-75
2021/01/02 09:48:08;;;;;;;11.48;4.82;;;17.70;47.60;;;;;;5054053;28;20087;-75
2021/01/02 09:50:34;;;;;;;11.38;4.50;;;17.30;46.80;;;;;;5054386;28;20083;-75
2021/01/02 09:53:01;;;;;;;8.50;4.68;;;17.30;47.60;;;;;;5055182;28;20021;-75
2021/01/02 09:55:27;;;;;;;8.98;4.97;;;17.50;47.90;;;;;;5055143;28;20025;-76
2021/01/02 09:57:53;;;;;;;8.80;5.30;;;17.80;47.70;;;;;;5054627;28;20490;-76
2021/01/02 10:00:20;;;;;;;9.50;5.97;;;18.10;47.50;;;;;;5053683;28;20025;-75
2021/01/02 10:02:46;;;;;;;7.05;4.97;;;18.40;47.70;;;;;;5053681;28;20061;-75
2021/01/02 10:05:17;;;;;;;6.88;5.20;;;18.50;46.30;;;;;;5053885;28;20052;-76
2021/01/02 10:07:44;;;;;;;9.65;6.03;;;18.40;46.30;;;;;;5053633;28;20037;-76
2021/01/02 10:10:11;;;;;;;9.15;5.35;;;18.60;46.10;;;;;;5053139;28;20045;-76
2021/01/02 10:12:37;;;;;;;9.32;5.78;;;18.70;45.90;;;;;;5053389;28;20025;-75
2021/01/02 10:15:04;;;;;;;10.65;5.97;;;18.90;46.30;;;;;;5054379;28;20060;-76
2021/01/02 10:17:30;;;;;;;7.13;4.97;;;19.20;45.40;;;;;;5053793;28;20452;-75
2021/01/02 10:19:56;;;;;;;7.63;4.57;;;19.30;44.80;;;;;;5053236;28;20136;-75
2021/01/02 10:22:23;;;;;;;9.73;5.00;;;19.30;44.70;;;;;;5054840;28;20163;-75
2021/01/02 10:24:52;;;;;;;9.57;5.63;;;19.30;44.80;;;;;;5053372;28;20033;-75
2021/01/02 10:27:18;;;;;;;10.00;5.75;;;19.40;44.60;;;;;;5053135;28;20494;-76
2021/01/02 10:29:45;;;;;;;9.13;5.63;;;19.50;44.40;;;;;;5053177;28;20029;-75
2021/01/02 10:32:11;;;;;;;9.05;5.35;;;19.80;44.20;;;;;;5052793;28;20056;-75
2021/01/02 10:34:37;;;;;;;9.40;5.95;;;20.00;43.60;;;;;;5054811;28;20029;-75
2021/01/02 10:37:04;;;;;;;9.27;5.85;;;19.70;42.80;;;;;;5053042;28;20025;-76
2021/01/02 10:39:30;;;;;;;8.45;5.15;;;19.50;42.90;;;;;;5053358;28;20051;-76
2021/01/02 10:41:55;;;;;;;7.70;5.22;;;19.10;42.80;;;;;;5052792;28;20025;-76
2021/01/02 10:44:21;;;;;;;10.30;6.47;;;18.80;43.40;;;;;;5052853;28;20060;-74
2021/01/02 10:46:49;;;;;;;10.18;5.80;;;18.50;43.80;;;;;;5052834;28;20032;-75
2021/01/02 10:49:17;;;;;;;8.35;4.93;;;18.20;44.10;;;;;;5054308;28;20040;-75
2021/01/02 10:51:45;;;;;;;7.18;4.90;;;18.10;44.40;;;;;;5054048;28;20048;-76
2021/01/02 10:54:13;;;;;;;7.15;4.40;;;17.90;44.70;;;;;;5052285;28;20028;-75
2021/01/02 10:56:44;;;;;;;9.55;5.07;;;17.70;44.70;;;;;;5054075;28;20091;-76
2021/01/02 10:59:11;;;;;;;8.50;4.40;;;17.30;44.90;;;;;;5052741;28;20056;-76
2021/01/02 11:01:46;;;;;;;7.35;4.72;;;17.10;45.40;;;;;;5052678;28;20025;-75
2021/01/02 11:04:13;;;;;;;7.03;4.38;;;17.10;45.90;;;;;;5053748;28;20029;-75
2021/01/02 11:06:40;;;;;;;8.70;4.38;;;16.90;45.20;;;;;;5053594;28;20179;-75
2021/01/02 11:09:08;;;;;;;7.32;4.60;;;16.50;45.10;;;;;;5053860;28;20032;-76
2021/01/02 11:11:35;;;;;;;6.70;4.70;;;16.20;46.30;;;;;;5052321;28;20028;-76
2021/01/02 11:14:01;;;;;;;10.38;6.10;;;16.30;47.40;;;;;;5052380;28;20021;-75
2021/01/02 11:16:36;;;;;;;8.20;5.45;;;16.70;47.30;;;;;;5052890;28;20036;-75
2021/01/02 11:19:12;;;;;;;9.88;5.97;;;17.10;47.00;;;;;;5052374;28;20021;-74
2021/01/02 11:21:39;;;;;;;9.30;5.55;;;17.20;46.50;;;;;;5051499;28;20032;-75
2021/01/02 11:24:06;;;;;;;10.18;5.97;;;17.50;46.60;;;;;;5053316;28;20060;-75
2021/01/02 11:26:32;;;;;;;11.02;5.90;;;17.30;45.80;;;;;;5052212;28;20025;-75
2021/01/02 11:28:58;;;;;;;9.85;5.50;;;17.10;45.80;;;;;;5053280;28;20056;-74
2021/01/02 11:31:33;;;;;;;9.13;5.20;;;16.80;46.10;;;;;;5052193;28;20029;-74
2021/01/02 11:33:59;;;;;;;9.93;5.40;;;16.40;46.60;;;;;;5053175;28;20080;-75
2021/01/02 11:36:25;;;;;;;9.25;5.32;;;16.20;47.10;;;;;;5052251;28;20032;-75
2021/01/02 11:38:52;;;;;;;9.95;5.43;;;16.10;47.30;;;;;;5052977;28;20082;-75
2021/01/02 11:41:19;;;;;;;11.65;5.85;;;15.90;47.60;;;;;;5053148;28;20491;-74
2021/01/02 11:43:45;;;;;;;8.00;5.10;;;15.70;47.50;;;;;;5052157;28;20025;-76
2021/01/02 11:46:12;;;;;;;9.10;5.43;;;15.70;48.40;;;;;;5051494;28;20025;-75
2021/01/02 11:48:40;;;;;;;8.27;5.00;;;16.00;48.40;;;;;;5052989;28;20047;-75
2021/01/02 11:51:12;;;;;;;10.82;5.50;;;16.00;47.80;;;;;;5051836;28;20087;-75
2021/01/02 11:53:39;;;;;;;9.68;5.28;;;15.90;47.30;;;;;;5051977;28;20025;-76
2021/01/02 11:56:05;;;;;;;10.82;6.15;;;15.60;47.70;;;;;;5051267;28;20024;-75
2021/01/02 11:58:33;;;;;;;10.20;6.07;;;15.60;48.50;;;;;;5052950;28;20067;-74
2021/01/02 12:00:59;;;;;;;8.52;5.43;;;15.60;48.60;;;;;;5053090;28;20087;-75
2021/01/02 12:03:25;;;;;;;10.98;6.10;;;15.70;48.90;;;;;;5051604;28;20463;-75
2021/01/02 12:05:51;;;;;;;9.50;6.07;;;15.70;48.80;;;;;;5051523;28;20413;-74
2021/01/02 12:08:17;;;;;;;11.20;5.93;;;15.60;48.70;;;;;;5051458;28;20035;-75
2021/01/02 12:10:45;;;;;;;10.20;6.43;;;15.40;48.70;;;;;;5052815;28;20453;-75
2021/01/02 12:13:10;;;;;;;9.45;5.72;;;15.30;48.70;;;;;;5052664;28;20386;-75
2021/01/02 12:15:36;;;;;;;9.05;5.53;;;15.20;48.60;;;;;;5052440;28;20017;-74
2021/01/02 12:18:02;;;;;;;11.48;6.30;;;15.10;48.60;;;;;;5051035;28;20061;-74
2021/01/02 12:20:28;;;;;;;10.15;6.20;;;15.00;48.90;;;;;;5051530;28;20025;-75
2021/01/02 12:22:53;;;;;;;12.55;6.95;;;14.90;48.90;;;;;;5051573;28;20044;-74
2021/01/02 12:25:19;;;;;;;12.90;7.28;;;14.80;49.00;;;;;;5052758;28;20040;-74
2021/01/02 12:27:46;;;;;;;14.32;8.57;;;14.50;49.00;;;;;;5051568;28;20055;-74
2021/01/02 12:30:12;;;;;;;14.25;8.10;;;14.00;49.20;;;;;;5052495;28;20037;-75
2021/01/02 12:32:38;;;;;;;15.10;7.45;;;13.50;49.60;;;;;;5052808;28;20059;-74
2021/01/02 12:35:04;;;;;;;14.65;7.07;;;13.20;50.90;;;;;;5055643;28;20104;-74
2021/01/02 12:37:30;;;;;;;15.68;7.68;;;13.10;51.40;;;;;;5056352;28;20104;-74
2021/01/02 12:39:55;;;;;;;11.43;7.63;;;13.00;52.10;;;;;;5056427;28;20574;-74
2021/01/02 12:42:21;;;;;;;10.73;5.85;;;12.90;51.80;;;;;;5055277;28;20034;-74
2021/01/02 12:44:49;;;;;;;12.98;6.95;;;12.70;52.10;;;;;;5055296;28;20029;-74
2021/01/02 12:47:18;;;;;;;9.82;6.05;;;12.40;52.40;;;;;;5055019;28;20553;-74
2021/01/02 12:49:45;;;;;;;11.50;6.97;;;12.10;53.00;;;;;;5056383;28;20025;-74
2021/01/02 12:52:12;;;;;;;13.48;7.53;;;12.00;53.50;;;;;;5056142;28;20498;-74
2021/01/02 12:54:40;;;;;;;11.90;7.20;;;11.80;53.90;;;;;;5056527;28;20104;-74
2021/01/02 12:57:06;;;;;;;14.88;7.72;;;11.60;54.40;;;;;;5054928;28;20033;-74
2021/01/02 12:59:34;;;;;;;19.85;7.90;;;11.20;55.10;;;;;;5055943;28;20123;-74
2021/01/02 13:02:09;;;;;;;14.23;8.10;;;11.10;56.10;;;;;;5056062;28;20017;-74